createdAt,value
2023-11-12T00:00:33.722Z,19.44
2023-11-12T00:04:22.831Z,19.59
2023-11-12T00:08:05.369Z,19.67
2023-11-12T00:11:48.347Z,19.68
2023-11-12T00:15:32.072Z,19.68
2023-11-12T00:18:55.718Z,19.61
2023-11-12T00:22:38.439Z,19.64
2023-11-12T00:26:21.742Z,19.75
2023-11-12T00:30:11.892Z,19.74
2023-11-12T00:33:55.844Z,19.68
2023-11-12T00:37:38.564Z,19.72
2023-11-12T00:41:15.021Z,19.30
2023-11-12T00:44:51.900Z,19.18
2023-11-12T00:48:32.854Z,19.27
2023-11-12T00:52:00.724Z,19.36
2023-11-12T00:55:35.039Z,19.33
2023-11-12T00:59:10.111Z,19.37
2023-11-12T01:02:45.477Z,19.28
2023-11-12T01:06:19.032Z,19.28
2023-11-12T01:09:34.931Z,19.17
2023-11-12T01:13:11.591Z,19.24
2023-11-12T01:16:47.961Z,19.34
2023-11-12T01:20:22.302Z,19.35
2023-11-12T01:24:03.419Z,19.30
2023-11-12T01:27:45.760Z,19.22
2023-11-12T01:31:23.222Z,19.23
2023-11-12T01:35:00.277Z,19.35
2023-11-12T01:38:40.176Z,19.28
2023-11-12T01:42:10.795Z,18.95
2023-11-12T01:45:41.665Z,18.77
2023-11-12T01:49:13.942Z,18.98
2023-11-12T01:52:44.443Z,19.05
2023-11-12T01:56:14.901Z,19.08
2023-11-12T01:59:47.118Z,18.97
2023-11-12T02:03:17.634Z,18.96
2023-11-12T02:06:50.623Z,18.92
2023-11-12T02:10:25.201Z,18.99
2023-11-12T02:14:05.949Z,18.91
2023-11-12T02:17:42.765Z,19.00
2023-11-12T02:21:20.185Z,18.91
2023-11-12T02:24:56.923Z,18.91
2023-11-12T02:28:33.629Z,19.06
2023-11-12T02:32:17.091Z,19.22
2023-11-12T02:36:00.340Z,19.20
2023-11-12T02:39:42.963Z,19.26
2023-11-12T02:43:19.730Z,19.36
2023-11-12T02:46:56.264Z,19.40
2023-11-12T02:50:33.130Z,19.35
2023-11-12T02:54:09.867Z,19.50
2023-11-12T02:57:52.536Z,19.02
2023-11-12T03:01:28.852Z,19.08
2023-11-12T03:05:11.298Z,19.29
2023-11-12T03:07:45.192Z,19.21
2023-11-12T03:10:19.220Z,19.26
2023-11-12T03:12:52.982Z,19.20
2023-11-12T03:15:26.953Z,19.04
2023-11-12T03:18:00.692Z,18.93
2023-11-12T03:20:41.193Z,18.89
2023-11-12T03:23:08.892Z,18.99
2023-11-12T03:25:46.434Z,18.99
2023-11-12T03:28:14.175Z,18.97
2023-11-12T03:30:48.222Z,19.09
2023-11-12T03:33:15.960Z,19.01
2023-11-12T03:35:44.021Z,19.02
2023-11-12T03:38:12.369Z,19.11
2023-11-12T03:40:44.634Z,19.00
2023-11-12T03:43:22.181Z,19.01
2023-11-12T03:45:49.814Z,19.23
2023-11-12T03:48:20.469Z,19.02
2023-11-12T03:50:53.552Z,18.90
2023-11-12T03:53:24.421Z,19.09
2023-11-12T03:55:57.083Z,19.07
2023-11-12T03:58:28.397Z,18.97
2023-11-12T04:01:02.000Z,18.95
2023-11-12T04:03:35.805Z,18.99
2023-11-12T04:06:04.700Z,18.94
2023-11-12T04:08:48.488Z,18.85
2023-11-12T04:11:17.179Z,18.78
2023-11-12T04:13:44.956Z,18.75
2023-11-12T04:16:13.647Z,18.86
2023-11-12T04:18:41.424Z,18.82
2023-11-12T04:21:15.148Z,18.90
2023-11-12T04:23:49.280Z,18.62
2023-11-12T04:26:23.688Z,18.49
2023-11-12T04:28:51.449Z,18.81
2023-11-12T04:31:25.091Z,18.55
2023-11-12T04:33:55.364Z,18.49
2023-11-12T04:36:23.168Z,18.51
2023-11-12T04:38:50.918Z,18.54
2023-11-12T04:41:19.543Z,18.56
2023-11-12T04:43:47.097Z,18.59
2023-11-12T04:46:22.525Z,18.66
2023-11-12T04:48:53.538Z,18.65
2023-11-12T04:51:25.938Z,18.55
2023-11-12T04:53:58.949Z,18.53
2023-11-12T04:56:30.567Z,18.74
2023-11-12T04:59:03.081Z,18.74
2023-11-12T05:01:34.868Z,18.71
2023-11-12T05:04:12.542Z,18.65
2023-11-12T05:06:40.492Z,18.68
2023-11-12T05:09:12.701Z,18.61
2023-11-12T05:11:46.512Z,18.56
2023-11-12T05:14:23.316Z,18.61
2023-11-12T05:16:57.018Z,18.58
2023-11-12T05:19:33.566Z,18.56
2023-11-12T05:22:01.321Z,18.52
2023-11-12T05:24:37.042Z,18.42
2023-11-12T05:27:05.823Z,18.41
2023-11-12T05:29:45.675Z,18.40
2023-11-12T05:32:13.405Z,18.41
2023-11-12T05:34:43.171Z,18.45
2023-11-12T05:37:25.027Z,18.50
2023-11-12T05:39:53.828Z,18.36
2023-11-12T05:42:25.784Z,18.40
2023-11-12T05:44:59.657Z,18.21
2023-11-12T05:47:30.214Z,18.13
2023-11-12T05:50:02.442Z,18.13
2023-11-12T05:52:34.697Z,18.17
2023-11-12T05:55:06.944Z,18.23
2023-11-12T05:57:38.855Z,18.11
2023-11-12T06:00:12.269Z,18.22
2023-11-12T06:02:49.668Z,18.23
2023-11-12T06:05:23.325Z,18.11
2023-11-12T06:07:50.993Z,18.08
2023-11-12T06:10:18.948Z,18.03
2023-11-12T06:12:55.625Z,17.92
2023-11-12T06:15:28.422Z,17.94
2023-11-12T06:17:56.337Z,17.94
2023-11-12T06:20:26.860Z,17.99
2023-11-12T06:22:54.901Z,18.04
2023-11-12T06:25:26.851Z,18.21
2023-11-12T06:27:59.415Z,18.21
2023-11-12T06:30:33.127Z,18.25
2023-11-12T06:33:01.546Z,18.19
2023-11-12T06:35:35.197Z,18.31
2023-11-12T06:38:05.808Z,18.33
2023-11-12T06:40:39.275Z,18.34
2023-11-12T06:43:14.412Z,18.43
2023-11-12T06:45:48.115Z,18.31
2023-11-12T06:48:20.087Z,18.19
2023-11-12T06:50:52.431Z,18.27
2023-11-12T06:53:24.563Z,18.29
2023-11-12T06:55:58.787Z,18.18
2023-11-12T06:58:32.490Z,18.23
2023-11-12T07:01:01.775Z,18.15
2023-11-12T07:03:34.571Z,18.09
2023-11-12T07:06:09.227Z,18.03
2023-11-12T07:08:41.915Z,18.11
2023-11-12T07:11:15.419Z,18.04
2023-11-12T07:13:46.575Z,18.10
2023-11-12T07:16:21.720Z,18.11
2023-11-12T07:18:54.851Z,18.12
2023-11-12T07:21:30.095Z,18.18
2023-11-12T07:24:04.519Z,18.10
2023-11-12T07:26:36.662Z,18.13
2023-11-12T07:29:15.016Z,18.18
2023-11-12T07:31:44.497Z,18.12
2023-11-12T07:34:15.096Z,17.98
2023-11-12T07:36:49.213Z,18.12
2023-11-12T07:39:22.766Z,18.01
2023-11-12T07:41:55.929Z,18.05
2023-11-12T07:44:37.048Z,18.11
2023-11-12T07:47:06.279Z,18.22
2023-11-12T07:49:34.798Z,18.30
2023-11-12T07:52:07.011Z,18.36
2023-11-12T07:54:40.817Z,18.22
2023-11-12T07:57:11.848Z,18.13
2023-11-12T07:59:44.082Z,18.08
2023-11-12T08:02:16.368Z,18.15
2023-11-12T08:04:48.724Z,18.15
2023-11-12T08:07:28.040Z,18.10
2023-11-12T08:09:59.705Z,18.03
2023-11-12T08:12:33.563Z,17.97
2023-11-12T08:15:01.285Z,17.76
2023-11-12T08:17:29.116Z,17.91
2023-11-12T08:19:59.219Z,17.96
2023-11-12T08:22:26.882Z,17.70
2023-11-12T08:24:56.358Z,17.46
2023-11-12T08:27:24.222Z,17.46
2023-11-12T08:29:54.388Z,17.27
2023-11-12T08:32:22.804Z,17.16
2023-11-12T08:34:55.604Z,17.10
2023-11-12T08:37:29.443Z,17.07
2023-11-12T08:39:59.453Z,17.24
2023-11-12T08:42:28.125Z,17.29
2023-11-12T08:44:58.000Z,17.30
2023-11-12T08:47:30.274Z,17.50
2023-11-12T08:49:57.908Z,17.47
2023-11-12T08:52:31.714Z,17.40
2023-11-12T08:54:59.402Z,17.31
2023-11-12T08:57:37.078Z,17.35
2023-11-12T09:00:07.871Z,17.44
2023-11-12T09:02:42.128Z,17.58
2023-11-12T09:05:15.801Z,17.47
2023-11-12T09:07:54.728Z,17.22
2023-11-12T09:10:22.346Z,16.97
2023-11-12T09:12:57.198Z,17.03
2023-11-12T09:15:30.939Z,17.10
2023-11-12T09:17:58.693Z,17.13
2023-11-12T09:20:27.015Z,17.14
2023-11-12T09:23:00.807Z,17.15
2023-11-12T09:25:34.430Z,17.27
2023-11-12T09:28:04.082Z,17.27
2023-11-12T09:30:49.513Z,17.23
2023-11-12T09:33:56.668Z,17.33
2023-11-12T09:36:24.478Z,17.40
2023-11-12T09:38:52.240Z,17.54
2023-11-12T09:41:21.425Z,17.66
2023-11-12T09:43:55.142Z,17.69
2023-11-12T09:46:27.500Z,17.80
2023-11-12T09:48:55.221Z,17.94
2023-11-12T09:51:25.570Z,17.99
2023-11-12T09:53:54.168Z,17.89
2023-11-12T09:56:29.345Z,18.03
2023-11-12T09:59:05.417Z,18.02
2023-11-12T10:01:39.870Z,17.91
2023-11-12T10:04:14.582Z,17.65
2023-11-12T10:06:43.159Z,17.56
2023-11-12T10:09:32.983Z,17.58
2023-11-12T10:12:04.899Z,17.64
2023-11-12T10:14:36.461Z,17.60
2023-11-12T10:17:07.955Z,17.56
2023-11-12T10:19:56.079Z,17.58
2023-11-12T10:22:44.336Z,17.35
2023-11-12T10:25:12.158Z,17.29
2023-11-12T10:27:55.492Z,17.47
2023-11-12T10:30:25.602Z,17.50
2023-11-12T10:33:17.305Z,17.42
2023-11-12T10:35:45.449Z,17.38
2023-11-12T10:38:20.279Z,17.33
2023-11-12T10:41:03.620Z,17.46
2023-11-12T10:43:37.347Z,17.47
2023-11-12T10:46:06.040Z,17.53
2023-11-12T10:48:44.074Z,17.52
2023-11-12T10:51:17.835Z,17.43
2023-11-12T10:53:55.857Z,17.39
2023-11-12T10:56:24.048Z,17.51
2023-11-12T10:58:59.898Z,17.64
2023-11-12T11:01:30.534Z,17.67
2023-11-12T11:03:58.348Z,17.61
2023-11-12T11:06:26.361Z,17.54
2023-11-12T11:09:00.347Z,17.67
2023-11-12T11:11:29.984Z,17.78
2023-11-12T11:13:57.616Z,17.91
2023-11-12T11:16:59.120Z,17.88
2023-11-12T11:19:46.172Z,17.97
2023-11-12T11:22:30.911Z,17.95
2023-11-12T11:25:26.458Z,17.91
2023-11-12T11:28:20.432Z,17.86
2023-11-12T11:31:14.721Z,17.86
2023-11-12T11:33:53.045Z,17.90
2023-11-12T11:36:24.141Z,17.67
2023-11-12T11:39:04.200Z,17.61
2023-11-12T11:42:01.457Z,17.42
2023-11-12T11:44:43.185Z,17.24
2023-11-12T11:47:27.938Z,17.07
2023-11-12T11:50:05.776Z,16.92
2023-11-12T11:52:43.776Z,16.88
2023-11-12T11:55:21.579Z,16.78
2023-11-12T11:57:55.562Z,16.73
2023-11-12T12:00:25.325Z,16.88
2023-11-12T12:03:02.482Z,16.99
2023-11-12T12:05:34.279Z,16.98
2023-11-12T12:08:08.021Z,17.01
2023-11-12T12:10:37.318Z,16.77
2023-11-12T12:13:09.649Z,16.81
2023-11-12T12:15:46.750Z,16.82
2023-11-12T12:18:27.485Z,16.79
2023-11-12T12:21:04.499Z,16.80
2023-11-12T12:23:32.106Z,16.87
2023-11-12T12:26:13.070Z,16.77
2023-11-12T12:28:47.436Z,16.72
2023-11-12T12:31:15.221Z,16.82
2023-11-12T12:34:00.788Z,16.95
2023-11-12T12:36:35.638Z,16.92
2023-11-12T12:39:07.933Z,16.99
2023-11-12T12:41:36.058Z,17.01
2023-11-12T12:44:24.204Z,16.91
2023-11-12T12:46:58.136Z,16.82
2023-11-12T12:49:35.785Z,16.67
2023-11-12T12:52:23.311Z,16.78
2023-11-12T12:54:54.763Z,16.79
2023-11-12T12:57:25.990Z,16.73
2023-11-12T12:59:53.623Z,16.84
2023-11-12T13:02:23.632Z,16.89
2023-11-12T13:04:54.464Z,16.88
2023-11-12T13:07:26.015Z,16.98
2023-11-12T13:10:00.650Z,16.95
2023-11-12T13:12:32.113Z,16.92
2023-11-12T13:15:04.884Z,16.92
2023-11-12T13:17:38.754Z,16.93
2023-11-12T13:20:23.026Z,16.99
2023-11-12T13:22:52.032Z,16.95
2023-11-12T13:25:25.891Z,16.87
2023-11-12T13:27:54.876Z,16.92
2023-11-12T13:30:29.666Z,16.91
2023-11-12T13:32:57.390Z,16.87
2023-11-12T13:35:31.429Z,16.76
2023-11-12T13:37:59.116Z,16.79
2023-11-12T13:40:41.221Z,16.70
2023-11-12T13:43:09.350Z,16.70
2023-11-12T13:45:40.297Z,16.66
2023-11-12T13:48:10.118Z,16.72
2023-11-12T13:50:51.056Z,16.77
2023-11-12T13:53:20.365Z,16.77
2023-11-12T13:55:59.420Z,16.83
2023-11-12T13:58:29.074Z,16.90
2023-11-12T14:00:56.771Z,16.83
2023-11-12T14:03:24.582Z,16.70
2023-11-12T14:05:57.333Z,16.70
2023-11-12T14:08:30.360Z,16.78
2023-11-12T14:11:02.744Z,16.81
2023-11-12T14:13:35.024Z,16.72
2023-11-12T14:16:12.408Z,16.62
2023-11-12T14:18:46.592Z,16.72
2023-11-12T14:21:19.939Z,16.83
2023-11-12T14:23:51.497Z,16.75
2023-11-12T14:26:27.451Z,16.92
2023-11-12T14:29:01.653Z,16.75
2023-11-12T14:31:35.462Z,16.79
2023-11-12T14:34:16.435Z,16.77
2023-11-12T14:36:46.616Z,16.89
2023-11-12T14:39:24.689Z,16.85
2023-11-12T14:41:57.072Z,16.95
2023-11-12T14:44:34.335Z,17.07
2023-11-12T14:47:02.091Z,17.24
2023-11-12T14:49:33.551Z,17.36
2023-11-12T14:52:08.286Z,17.28
2023-11-12T14:54:35.996Z,17.25
2023-11-12T14:57:05.874Z,17.38
2023-11-12T14:59:41.206Z,17.44
2023-11-12T15:02:12.754Z,17.17
2023-11-12T15:04:45.181Z,17.10
2023-11-12T15:07:26.525Z,16.86
2023-11-12T15:10:08.406Z,16.86
2023-11-12T15:12:51.349Z,16.85
2023-11-12T15:15:31.369Z,16.90
2023-11-12T15:18:15.512Z,16.87
2023-11-12T15:20:55.393Z,16.85
2023-11-12T15:23:36.182Z,16.95
2023-11-12T15:26:21.045Z,16.81
2023-11-12T15:29:02.001Z,16.71
2023-11-12T15:31:43.399Z,16.41
2023-11-12T15:34:23.355Z,16.01
2023-11-12T15:37:03.275Z,16.02
2023-11-12T15:39:45.636Z,15.95
2023-11-12T15:42:25.623Z,15.82
2023-11-12T15:45:07.299Z,15.89
2023-11-12T15:47:47.684Z,15.89
2023-11-12T15:50:31.557Z,15.95
2023-11-12T15:53:12.727Z,15.69
2023-11-12T15:55:52.678Z,15.65
2023-11-12T15:58:32.408Z,15.71
2023-11-12T16:01:12.928Z,15.58
2023-11-12T16:03:53.645Z,15.99
2023-11-12T16:06:33.652Z,16.51
2023-11-12T16:09:13.685Z,16.69
2023-11-12T16:11:53.576Z,17.04
2023-11-12T16:14:34.194Z,16.86
2023-11-12T16:17:14.140Z,16.13
2023-11-12T16:19:55.144Z,16.11
2023-11-12T16:22:38.281Z,15.98
2023-11-12T16:25:18.477Z,16.21
2023-11-12T16:27:58.421Z,16.46
2023-11-12T16:30:39.176Z,16.14
2023-11-12T16:33:19.058Z,16.13
2023-11-12T16:35:59.301Z,16.01
2023-11-12T16:38:46.744Z,16.03
2023-11-12T16:41:27.546Z,16.13
2023-11-12T16:44:07.418Z,16.22
2023-11-12T16:46:48.652Z,16.23
2023-11-12T16:49:28.594Z,16.19
2023-11-12T16:52:09.304Z,16.20
2023-11-12T16:54:49.325Z,16.16
2023-11-12T16:57:29.248Z,16.09
2023-11-12T17:00:09.703Z,15.98
2023-11-12T17:02:49.762Z,16.01
2023-11-12T17:05:29.853Z,16.14
2023-11-12T17:08:09.895Z,16.14
2023-11-12T17:10:51.527Z,15.93
2023-11-12T17:13:34.215Z,15.81
2023-11-12T17:16:17.478Z,15.86
2023-11-12T17:18:51.394Z,15.94
2023-11-12T17:21:25.297Z,16.12
2023-11-12T17:24:02.060Z,16.10
2023-11-12T17:26:35.813Z,16.20
2023-11-12T17:29:09.811Z,16.13
2023-11-12T17:31:43.543Z,15.95
2023-11-12T17:34:18.049Z,16.03
2023-11-12T17:36:51.934Z,16.06
2023-11-12T17:39:26.279Z,16.13
2023-11-12T17:42:06.120Z,16.25
2023-11-12T17:44:40.510Z,16.21
2023-11-12T17:47:15.113Z,16.31
2023-11-12T17:49:56.832Z,16.28
2023-11-12T17:52:36.839Z,16.01
2023-11-12T17:55:16.756Z,15.98
2023-11-12T17:57:58.196Z,16.04
2023-11-12T18:00:38.592Z,16.26
2023-11-12T18:03:22.588Z,16.36
2023-11-12T18:06:11.594Z,16.40
2023-11-12T18:08:52.065Z,16.41
2023-11-12T18:11:32.435Z,16.40
2023-11-12T18:14:09.511Z,16.37
2023-11-12T18:16:46.101Z,16.28
2023-11-12T18:19:20.306Z,16.32
2023-11-12T18:21:54.122Z,16.37
2023-11-12T18:24:28.079Z,16.24
2023-11-12T18:27:01.835Z,16.22
2023-11-12T18:29:35.698Z,16.19
2023-11-12T18:32:11.299Z,16.07
2023-11-12T18:34:48.590Z,15.96
2023-11-12T18:37:22.435Z,15.96
2023-11-12T18:39:56.199Z,16.04
2023-11-12T18:42:31.079Z,16.09
2023-11-12T18:45:05.237Z,16.24
2023-11-12T18:47:38.950Z,16.19
2023-11-12T18:50:12.760Z,16.18
2023-11-12T18:52:47.153Z,16.30
2023-11-12T18:55:21.627Z,16.18
2023-11-12T18:57:55.450Z,16.14
2023-11-12T19:00:29.373Z,15.97
2023-11-12T19:03:05.118Z,16.00
2023-11-12T19:05:39.041Z,15.84
2023-11-12T19:09:21.763Z,15.65
2023-11-12T19:13:04.717Z,15.61
2023-11-12T19:16:50.786Z,15.66
2023-11-12T19:20:27.655Z,15.72
2023-11-12T19:24:04.571Z,15.66
2023-11-12T19:27:47.219Z,15.79
2023-11-12T19:31:28.234Z,15.75
2023-11-12T19:35:10.081Z,15.74
2023-11-12T19:38:47.320Z,15.83
2023-11-12T19:42:39.919Z,15.84
2023-11-12T19:46:23.096Z,16.02
2023-11-12T19:50:06.744Z,16.00
2023-11-12T19:53:26.996Z,16.12
2023-11-12T19:57:10.059Z,16.10
2023-11-12T20:00:53.793Z,16.02
2023-11-12T20:04:30.653Z,15.74
2023-11-12T20:08:07.216Z,15.71
2023-11-12T20:11:43.890Z,15.79
2023-11-12T20:15:29.774Z,15.96
2023-11-12T20:19:15.802Z,15.89
2023-11-12T20:23:06.833Z,16.07
2023-11-12T20:26:52.823Z,15.86
2023-11-12T20:30:39.481Z,15.96
2023-11-12T20:34:21.969Z,16.02
2023-11-12T20:38:08.912Z,16.03
2023-11-12T20:41:53.748Z,16.29
2023-11-12T20:45:39.887Z,16.46
2023-11-12T20:49:23.276Z,16.50
2023-11-12T20:53:06.325Z,16.39
2023-11-12T20:56:49.319Z,16.17
2023-11-12T21:00:32.665Z,16.24
2023-11-12T21:03:57.325Z,16.22
2023-11-12T21:07:40.037Z,16.06
2023-11-12T21:11:22.853Z,15.94
2023-11-12T21:15:05.554Z,16.11
2023-11-12T21:18:49.637Z,16.21
2023-11-12T21:22:32.790Z,16.17
2023-11-12T21:26:15.431Z,16.31
2023-11-12T21:30:01.956Z,16.32
2023-11-12T21:33:45.260Z,16.51
2023-11-12T21:37:34.891Z,16.54
2023-11-12T21:41:21.747Z,16.34
2023-11-12T21:45:11.011Z,16.37
2023-11-12T21:49:00.100Z,16.27
2023-11-12T21:52:42.923Z,16.34
2023-11-12T21:56:26.332Z,16.39
2023-11-12T22:00:13.324Z,16.26
2023-11-12T22:03:55.828Z,16.37
2023-11-12T22:07:38.953Z,16.54
2023-11-12T22:11:21.598Z,16.44
2023-11-12T22:15:10.960Z,16.64
2023-11-12T22:18:58.992Z,16.75
2023-11-12T22:22:41.482Z,16.52
2023-11-12T22:26:23.971Z,16.51
2023-11-12T22:30:07.630Z,16.34
2023-11-12T22:33:50.342Z,16.53
2023-11-12T22:37:32.931Z,16.42
2023-11-12T22:41:16.918Z,16.48
2023-11-12T22:44:59.709Z,16.49
2023-11-12T22:48:43.123Z,16.40
2023-11-12T22:52:26.391Z,16.53
2023-11-12T22:56:09.206Z,16.42
2023-11-12T22:59:54.133Z,16.67
2023-11-12T23:03:36.886Z,16.76
2023-11-12T23:06:46.338Z,16.63
2023-11-12T23:09:22.829Z,16.55
2023-11-12T23:11:50.572Z,16.42
2023-11-12T23:14:27.953Z,16.45
2023-11-12T23:17:02.389Z,16.59
2023-11-12T23:19:36.314Z,16.53
2023-11-12T23:22:05.841Z,16.26
2023-11-12T23:24:49.077Z,16.32
2023-11-12T23:27:22.873Z,16.34
2023-11-12T23:29:57.363Z,16.37
2023-11-12T23:32:25.357Z,16.27
2023-11-12T23:34:59.207Z,16.28
2023-11-12T23:37:35.368Z,16.42
2023-11-12T23:40:10.981Z,16.36
2023-11-12T23:42:39.241Z,16.27
2023-11-12T23:45:14.234Z,16.37
2023-11-12T23:47:47.990Z,16.27
2023-11-12T23:50:23.632Z,16.43
2023-11-12T23:52:51.235Z,16.50
2023-11-12T23:55:22.978Z,16.41
2023-11-12T23:57:54.486Z,16.52
